sensor_id;sensor_type;location;lat;lon;timestamp;pressure;altitude;pressure_sealevel;temperature;humidity
67818;BME280;54614;47.576;7.524;2022-12-18T00:01:20;99418.78;;;22.66;29.65
67818;BME280;54614;47.576;7.524;2022-12-18T00:03:47;99417.50;;;22.62;29.60
67818;BME280;54614;47.576;7.524;2022-12-18T00:06:14;99427.03;;;22.65;29.48
67818;BME280;54614;47.576;7.524;2022-12-18T00:08:41;99427.38;;;22.62;29.55
67818;BME280;54614;47.576;7.524;2022-12-18T00:11:16;99418.97;;;22.65;29.69
67818;BME280;54614;47.576;7.524;2022-12-18T00:13:42;99418.13;;;22.64;29.91
67818;BME280;54614;47.576;7.524;2022-12-18T00:16:18;99416.94;;;22.67;29.87
67818;BME280;54614;47.576;7.524;2022-12-18T00:18:47;99406.75;;;22.62;29.95
67818;BME280;54614;47.576;7.524;2022-12-18T00:21:14;99402.41;;;22.61;30.02
67818;BME280;54614;47.576;7.524;2022-12-18T00:23:43;99404.91;;;22.63;29.62
67818;BME280;54614;47.576;7.524;2022-12-18T00:26:19;99403.41;;;22.60;29.67
67818;BME280;54614;47.576;7.524;2022-12-18T00:28:46;99424.88;;;22.60;29.70
67818;BME280;54614;47.576;7.524;2022-12-18T00:31:20;99427.72;;;22.59;29.77
67818;BME280;54614;47.576;7.524;2022-12-18T00:33:47;99431.06;;;22.61;29.76
67818;BME280;54614;47.576;7.524;2022-12-18T00:36:19;99428.75;;;22.58;29.90
67818;BME280;54614;47.576;7.524;2022-12-18T00:38:46;99435.13;;;22.57;29.84
67818;BME280;54614;47.576;7.524;2022-12-18T00:41:15;99430.59;;;22.57;29.63
67818;BME280;54614;47.576;7.524;2022-12-18T00:44:03;99430.78;;;22.56;29.82
67818;BME280;54614;47.576;7.524;2022-12-18T00:46:30;99424.41;;;22.57;29.70
67818;BME280;54614;47.576;7.524;2022-12-18T00:48:56;99420.03;;;22.56;29.73
67818;BME280;54614;47.576;7.524;2022-12-18T00:51:22;99419.38;;;22.54;29.86
67818;BME280;54614;47.576;7.524;2022-12-18T00:53:48;99433.28;;;22.57;29.91
67818;BME280;54614;47.576;7.524;2022-12-18T00:56:14;99420.41;;;22.52;30.05
67818;BME280;54614;47.576;7.524;2022-12-18T00:58:39;99424.75;;;22.54;30.01
67818;BME280;54614;47.576;7.524;2022-12-18T01:01:06;99420.94;;;22.48;29.75
67818;BME280;54614;47.576;7.524;2022-12-18T01:03:32;99434.81;;;22.51;29.80
67818;BME280;54614;47.576;7.524;2022-12-18T01:05:58;99435.00;;;22.50;30.04
67818;BME280;54614;47.576;7.524;2022-12-18T01:08:24;99436.50;;;22.52;29.96
67818;BME280;54614;47.576;7.524;2022-12-18T01:10:51;99437.69;;;22.50;29.97
67818;BME280;54614;47.576;7.524;2022-12-18T01:13:16;99431.66;;;22.48;29.89
67818;BME280;54614;47.576;7.524;2022-12-18T01:15:52;99446.91;;;22.47;30.00
67818;BME280;54614;47.576;7.524;2022-12-18T01:18:18;99454.31;;;22.45;30.00
67818;BME280;54614;47.576;7.524;2022-12-18T01:20:44;99457.28;;;22.50;29.96
67818;BME280;54614;47.576;7.524;2022-12-18T01:23:09;99462.00;;;22.48;29.97
67818;BME280;54614;47.576;7.524;2022-12-18T01:25:38;99463.34;;;22.44;29.82
67818;BME280;54614;47.576;7.524;2022-12-18T01:28:04;99454.31;;;22.45;30.00
67818;BME280;54614;47.576;7.524;2022-12-18T01:30:30;99462.34;;;22.45;29.70
67818;BME280;54614;47.576;7.524;2022-12-18T01:32:56;99466.03;;;22.44;30.08
67818;BME280;54614;47.576;7.524;2022-12-18T01:35:21;99462.88;;;22.41;30.03
67818;BME280;54614;47.576;7.524;2022-12-18T01:37:47;99471.38;;;22.44;29.94
67818;BME280;54614;47.576;7.524;2022-12-18T01:40:13;99472.06;;;22.46;30.04
67818;BME280;54614;47.576;7.524;2022-12-18T01:42:39;99472.41;;;22.43;29.91
67818;BME280;54614;47.576;7.524;2022-12-18T01:47:57;99484.84;;;22.36;30.05
67818;BME280;54614;47.576;7.524;2022-12-18T01:50:34;99481.50;;;22.34;30.27
67818;BME280;54614;47.576;7.524;2022-12-18T01:53:17;99479.47;;;22.36;30.12
67818;BME280;54614;47.576;7.524;2022-12-18T01:55:52;99477.81;;;22.35;29.96
67818;BME280;54614;47.576;7.524;2022-12-18T01:58:39;99477.31;;;22.32;29.87
67818;BME280;54614;47.576;7.524;2022-12-18T02:01:07;99483.34;;;22.34;30.08
67818;BME280;54614;47.576;7.524;2022-12-18T02:03:33;99478.16;;;22.32;30.10
67818;BME280;54614;47.576;7.524;2022-12-18T02:09:11;99482.50;;;22.33;30.02
67818;BME280;54614;47.576;7.524;2022-12-18T02:11:57;99485.38;;;22.32;30.10
67818;BME280;54614;47.576;7.524;2022-12-18T02:15:05;99486.38;;;22.31;29.82
67818;BME280;54614;47.576;7.524;2022-12-18T02:17:43;99482.03;;;22.30;30.00
67818;BME280;54614;47.576;7.524;2022-12-18T02:28:20;99476.66;;;22.30;30.12
67818;BME280;54614;47.576;7.524;2022-12-18T02:30:50;99478.69;;;22.28;30.04
67818;BME280;54614;47.576;7.524;2022-12-18T02:33:20;99482.56;;;22.25;29.87
67818;BME280;54614;47.576;7.524;2022-12-18T02:35:48;99489.75;;;22.25;29.85
67818;BME280;54614;47.576;7.524;2022-12-18T02:38:16;99489.94;;;22.23;30.00
67818;BME280;54614;47.576;7.524;2022-12-18T02:40:43;99491.78;;;22.23;29.87
67818;BME280;54614;47.576;7.524;2022-12-18T02:43:14;99491.44;;;22.26;29.80
67818;BME280;54614;47.576;7.524;2022-12-18T02:45:48;99496.13;;;22.24;29.89
67818;BME280;54614;47.576;7.524;2022-12-18T02:48:17;99487.13;;;22.16;30.06
67818;BME280;54614;47.576;7.524;2022-12-18T02:54:09;99484.75;;;22.22;29.93
67818;BME280;54614;47.576;7.524;2022-12-18T02:56:54;99481.22;;;22.21;29.81
67818;BME280;54614;47.576;7.524;2022-12-18T03:00:02;99495.31;;;22.15;29.94
67818;BME280;54614;47.576;7.524;2022-12-18T03:02:41;99499.69;;;22.16;30.00
67818;BME280;54614;47.576;7.524;2022-12-18T03:05:47;99502.00;;;22.19;30.02
67818;BME280;54614;47.576;7.524;2022-12-18T03:08:31;99502.34;;;22.16;29.80
67818;BME280;54614;47.576;7.524;2022-12-18T03:11:09;99498.84;;;22.15;30.07
67818;BME280;54614;47.576;7.524;2022-12-18T03:13:51;99510.06;;;22.11;30.05
67818;BME280;54614;47.576;7.524;2022-12-18T03:16:29;99502.03;;;22.11;29.93
67818;BME280;54614;47.576;7.524;2022-12-18T03:19:06;99503.88;;;22.10;29.98
67818;BME280;54614;47.576;7.524;2022-12-18T03:21:45;99503.88;;;22.10;29.66
67818;BME280;54614;47.576;7.524;2022-12-18T03:24:15;99499.72;;;22.08;29.84
67818;BME280;54614;47.576;7.524;2022-12-18T03:26:47;99502.38;;;22.08;30.02
67818;BME280;54614;47.576;7.524;2022-12-18T03:29:33;99496.03;;;22.09;30.04
67818;BME280;54614;47.576;7.524;2022-12-18T03:32:15;99495.88;;;22.02;30.01
67818;BME280;54614;47.576;7.524;2022-12-18T03:34:48;99498.38;;;22.04;29.91
67818;BME280;54614;47.576;7.524;2022-12-18T03:37:16;99488.16;;;22.07;29.88
67818;BME280;54614;47.576;7.524;2022-12-18T03:39:42;99496.38;;;22.06;29.82
67818;BME280;54614;47.576;7.524;2022-12-18T03:42:49;99498.22;;;22.05;29.93
67818;BME280;54614;47.576;7.524;2022-12-18T03:45:32;99502.56;;;22.06;29.98
67818;BME280;54614;47.576;7.524;2022-12-18T03:48:38;99499.38;;;22.03;30.06
67818;BME280;54614;47.576;7.524;2022-12-18T03:51:27;99506.25;;;22.05;29.94
67818;BME280;54614;47.576;7.524;2022-12-18T03:53:59;99499.53;;;22.01;29.84
67818;BME280;54614;47.576;7.524;2022-12-18T03:56:33;99494.69;;;22.05;29.97
67818;BME280;54614;47.576;7.524;2022-12-18T03:59:04;99495.00;;;22.02;29.78
67818;BME280;54614;47.576;7.524;2022-12-18T04:01:40;99500.72;;;21.99;29.91
67818;BME280;54614;47.576;7.524;2022-12-18T04:04:09;99504.06;;;22.01;30.17
67818;BME280;54614;47.576;7.524;2022-12-18T04:06:38;99501.38;;;22.01;30.09
67818;BME280;54614;47.576;7.524;2022-12-18T04:09:05;99507.44;;;22.03;29.73
67818;BME280;54614;47.576;7.524;2022-12-18T04:11:32;99502.22;;;22.01;30.00
67818;BME280;54614;47.576;7.524;2022-12-18T04:13:58;99503.22;;;22.00;30.19
67818;BME280;54614;47.576;7.524;2022-12-18T04:16:28;99504.75;;;21.95;30.15
67818;BME280;54614;47.576;7.524;2022-12-18T04:18:54;99501.72;;;21.98;29.94
67818;BME280;54614;47.576;7.524;2022-12-18T04:21:21;99509.09;;;21.96;29.65
67818;BME280;54614;47.576;7.524;2022-12-18T04:23:46;99504.53;;;22.12;30.65
67818;BME280;54614;47.576;7.524;2022-12-18T04:26:13;99510.50;;;22.31;30.78
67818;BME280;54614;47.576;7.524;2022-12-18T04:28:38;99511.66;;;22.36;30.40
67818;BME280;54614;47.576;7.524;2022-12-18T04:31:04;99512.44;;;22.45;30.48
67818;BME280;54614;47.576;7.524;2022-12-18T04:33:30;99508.41;;;22.49;30.16
67818;BME280;54614;47.576;7.524;2022-12-18T04:35:56;99508.88;;;22.52;30.58
67818;BME280;54614;47.576;7.524;2022-12-18T04:38:22;99501.31;;;22.56;30.53
67818;BME280;54614;47.576;7.524;2022-12-18T04:40:48;99498.28;;;22.59;30.65
67818;BME280;54614;47.576;7.524;2022-12-18T04:43:14;99505.81;;;22.64;30.36
67818;BME280;54614;47.576;7.524;2022-12-18T04:45:40;99501.44;;;22.63;31.33
67818;BME280;54614;47.576;7.524;2022-12-18T04:48:06;99500.78;;;22.61;35.39
67818;BME280;54614;47.576;7.524;2022-12-18T04:50:32;99498.25;;;22.67;32.29
67818;BME280;54614;47.576;7.524;2022-12-18T04:52:58;99507.47;;;22.65;39.23
67818;BME280;54614;47.576;7.524;2022-12-18T04:55:23;99497.34;;;22.75;34.44
67818;BME280;54614;47.576;7.524;2022-12-18T04:57:49;99497.69;;;22.80;33.17
67818;BME280;54614;47.576;7.524;2022-12-18T05:00:15;99496.78;;;22.88;36.53
67818;BME280;54614;47.576;7.524;2022-12-18T05:02:41;99496.13;;;22.86;35.94
67818;BME280;54614;47.576;7.524;2022-12-18T05:05:08;99494.75;;;22.90;32.67
67818;BME280;54614;47.576;7.524;2022-12-18T05:07:34;99490.53;;;22.95;33.34
67818;BME280;54614;47.576;7.524;2022-12-18T05:09:59;99492.50;;;23.01;31.61
67818;BME280;54614;47.576;7.524;2022-12-18T05:12:26;99487.44;;;23.06;32.61
67818;BME280;54614;47.576;7.524;2022-12-18T05:14:51;99496.19;;;23.00;32.91
67818;BME280;54614;47.576;7.524;2022-12-18T05:17:17;99495.47;;;23.06;31.40
67818;BME280;54614;47.576;7.524;2022-12-18T05:19:43;99487.25;;;23.08;31.97
67818;BME280;54614;47.576;7.524;2022-12-18T05:22:10;99480.31;;;23.13;31.29
67818;BME280;54614;47.576;7.524;2022-12-18T05:24:36;99497.25;;;23.14;31.25
67818;BME280;54614;47.576;7.524;2022-12-18T05:27:01;99494.41;;;23.15;30.56
67818;BME280;54614;47.576;7.524;2022-12-18T05:29:27;99505.78;;;23.18;30.53
67818;BME280;54614;47.576;7.524;2022-12-18T05:31:53;99496.44;;;23.13;30.31
67818;BME280;54614;47.576;7.524;2022-12-18T05:34:19;99499.28;;;23.12;30.07
67818;BME280;54614;47.576;7.524;2022-12-18T05:36:45;99499.94;;;23.14;29.58
67818;BME280;54614;47.576;7.524;2022-12-18T05:39:10;99501.63;;;23.15;29.55
67818;BME280;54614;47.576;7.524;2022-12-18T05:41:36;99498.94;;;23.15;29.41
67818;BME280;54614;47.576;7.524;2022-12-18T05:44:02;99491.91;;;23.14;29.52
67818;BME280;54614;47.576;7.524;2022-12-18T05:46:28;99498.28;;;23.13;29.41
67818;BME280;54614;47.576;7.524;2022-12-18T05:48:58;99499.75;;;23.15;29.47
67818;BME280;54614;47.576;7.524;2022-12-18T05:51:24;99501.63;;;23.15;29.21
67818;BME280;54614;47.576;7.524;2022-12-18T05:53:50;99504.94;;;23.17;29.37
67818;BME280;54614;47.576;7.524;2022-12-18T05:56:21;99501.78;;;23.13;29.49
67818;BME280;54614;47.576;7.524;2022-12-18T05:58:51;99509.00;;;23.13;29.42
67818;BME280;54614;47.576;7.524;2022-12-18T06:01:22;99512.53;;;23.13;28.97
67818;BME280;54614;47.576;7.524;2022-12-18T06:03:48;99517.25;;;23.11;29.30
67818;BME280;54614;47.576;7.524;2022-12-18T06:06:19;99513.53;;;23.12;29.25
67818;BME280;54614;47.576;7.524;2022-12-18T06:08:47;99517.53;;;23.17;29.04
67818;BME280;54614;47.576;7.524;2022-12-18T06:11:18;99519.38;;;23.16;29.50
67818;BME280;54614;47.576;7.524;2022-12-18T06:13:44;99516.22;;;23.12;29.67
67818;BME280;54614;47.576;7.524;2022-12-18T06:16:10;99527.81;;;23.13;29.87
67818;BME280;54614;47.576;7.524;2022-12-18T06:18:36;99526.59;;;23.15;30.10
67818;BME280;54614;47.576;7.524;2022-12-18T06:21:02;99529.81;;;23.11;30.10
67818;BME280;54614;47.576;7.524;2022-12-18T06:23:28;99539.19;;;23.15;29.96
67818;BME280;54614;47.576;7.524;2022-12-18T06:25:54;99533.34;;;23.11;30.14
67818;BME280;54614;47.576;7.524;2022-12-18T06:28:20;99541.22;;;23.13;30.42
67818;BME280;54614;47.576;7.524;2022-12-18T06:30:49;99538.53;;;23.13;30.15
67818;BME280;54614;47.576;7.524;2022-12-18T06:33:16;99541.22;;;23.13;30.39
67818;BME280;54614;47.576;7.524;2022-12-18T06:35:42;99548.63;;;23.11;30.41
67818;BME280;54614;47.576;7.524;2022-12-18T06:38:08;99542.06;;;23.13;30.30
67818;BME280;54614;47.576;7.524;2022-12-18T06:40:37;99555.00;;;23.10;30.25
67818;BME280;54614;47.576;7.524;2022-12-18T06:43:03;99556.50;;;23.12;30.40
67818;BME280;54614;47.576;7.524;2022-12-18T06:45:29;99564.91;;;23.09;30.33
67818;BME280;54614;47.576;7.524;2022-12-18T06:47:54;99562.22;;;23.09;30.62
67818;BME280;54614;47.576;7.524;2022-12-18T06:50:20;99566.75;;;23.09;30.61
67818;BME280;54614;47.576;7.524;2022-12-18T06:52:46;99565.91;;;23.08;30.42
67818;BME280;54614;47.576;7.524;2022-12-18T06:55:12;99565.06;;;23.08;30.64
67818;BME280;54614;47.576;7.524;2022-12-18T06:57:38;99568.13;;;23.05;31.01
67818;BME280;54614;47.576;7.524;2022-12-18T07:00:07;99572.66;;;23.04;30.52
67818;BME280;54614;47.576;7.524;2022-12-18T07:02:34;99575.97;;;23.06;30.87
67818;BME280;54614;47.576;7.524;2022-12-18T07:05:00;99573.97;;;23.08;30.89
67818;BME280;54614;47.576;7.524;2022-12-18T07:07:26;99584.50;;;23.10;30.51
67818;BME280;54614;47.576;7.524;2022-12-18T07:09:52;99577.34;;;23.02;30.81
67818;BME280;54614;47.576;7.524;2022-12-18T07:12:18;99583.03;;;23.07;30.92
67818;BME280;54614;47.576;7.524;2022-12-18T07:14:44;99593.09;;;23.05;30.80
67818;BME280;54614;47.576;7.524;2022-12-18T07:17:10;99596.97;;;23.03;30.83
67818;BME280;54614;47.576;7.524;2022-12-18T07:19:36;99594.28;;;23.03;30.79
67818;BME280;54614;47.576;7.524;2022-12-18T07:22:02;99603.53;;;23.00;30.97
67818;BME280;54614;47.576;7.524;2022-12-18T07:24:28;99606.56;;;22.97;31.13
67818;BME280;54614;47.576;7.524;2022-12-18T07:26:54;99608.53;;;23.03;30.91
67818;BME280;54614;47.576;7.524;2022-12-18T07:29:20;99614.13;;;22.94;31.01
67818;BME280;54614;47.576;7.524;2022-12-18T07:31:46;99625.34;;;22.97;30.89
67818;BME280;54614;47.576;7.524;2022-12-18T07:34:13;99634.72;;;23.01;31.11
67818;BME280;54614;47.576;7.524;2022-12-18T07:36:40;99634.59;;;22.95;30.76
67818;BME280;54614;47.576;7.524;2022-12-18T07:39:06;99633.94;;;22.93;31.02
67818;BME280;54614;47.576;7.524;2022-12-18T07:41:33;99632.56;;;22.97;30.88
67818;BME280;54614;47.576;7.524;2022-12-18T07:43:59;99636.09;;;22.97;30.98
67818;BME280;54614;47.576;7.524;2022-12-18T07:46:25;99641.78;;;22.94;31.12
67818;BME280;54614;47.576;7.524;2022-12-18T07:48:50;99649.50;;;22.97;30.90
67818;BME280;54614;47.576;7.524;2022-12-18T07:51:17;99653.38;;;22.95;30.89
67818;BME280;54614;47.576;7.524;2022-12-18T07:53:43;99655.22;;;22.94;30.77
67818;BME280;54614;47.576;7.524;2022-12-18T07:56:11;99659.25;;;22.90;30.91
67818;BME280;54614;47.576;7.524;2022-12-18T07:58:37;99663.97;;;22.88;31.02
67818;BME280;54614;47.576;7.524;2022-12-18T08:01:09;99675.03;;;22.85;31.07
67818;BME280;54614;47.576;7.524;2022-12-18T08:03:38;99679.72;;;22.91;30.93
67818;BME280;54614;47.576;7.524;2022-12-18T08:06:08;99675.88;;;22.86;31.31
67818;BME280;54614;47.576;7.524;2022-12-18T08:08:35;99676.06;;;22.84;30.94
67818;BME280;54614;47.576;7.524;2022-12-18T08:11:01;99673.84;;;22.88;31.18
67818;BME280;54614;47.576;7.524;2022-12-18T08:13:28;99675.88;;;22.86;31.03
67818;BME280;54614;47.576;7.524;2022-12-18T08:16:02;99672.19;;;22.87;31.28
67818;BME280;54614;47.576;7.524;2022-12-18T08:18:29;99667.16;;;22.83;31.31
67818;BME280;54614;47.576;7.524;2022-12-18T08:20:56;99660.97;;;22.83;31.10
67818;BME280;54614;47.576;7.524;2022-12-18T08:23:22;99660.13;;;22.82;31.11
67818;BME280;54614;47.576;7.524;2022-12-18T08:25:48;99656.78;;;22.80;31.20
67818;BME280;54614;47.576;7.524;2022-12-18T08:28:14;99658.63;;;22.80;31.15
67818;BME280;54614;47.576;7.524;2022-12-18T08:30:39;99657.28;;;22.76;31.35
67818;BME280;54614;47.576;7.524;2022-12-18T08:33:05;99650.91;;;22.77;31.09
67818;BME280;54614;47.576;7.524;2022-12-18T08:35:36;99643.88;;;22.76;31.42
67818;BME280;54614;47.576;7.524;2022-12-18T08:38:02;99639.34;;;22.76;31.08
67818;BME280;54614;47.576;7.524;2022-12-18T08:40:29;99639.50;;;22.75;30.97
67818;BME280;54614;47.576;7.524;2022-12-18T08:42:54;99635.81;;;22.76;31.14
67818;BME280;54614;47.576;7.524;2022-12-18T08:45:39;99631.47;;;22.75;31.36
67818;BME280;54614;47.576;7.524;2022-12-18T08:48:05;99636.81;;;22.75;31.04
67818;BME280;54614;47.576;7.524;2022-12-18T08:50:31;99621.75;;;22.74;31.10
67818;BME280;54614;47.576;7.524;2022-12-18T08:52:57;99617.22;;;22.74;31.03
67818;BME280;54614;47.576;7.524;2022-12-18T08:55:23;99623.06;;;22.78;31.11
67818;BME280;54614;47.576;7.524;2022-12-18T08:57:49;99618.41;;;22.80;31.07
67818;BME280;54614;47.576;7.524;2022-12-18T09:00:15;99615.84;;;22.78;31.16
67818;BME280;54614;47.576;7.524;2022-12-18T09:02:41;99606.66;;;22.81;31.34
67818;BME280;54614;47.576;7.524;2022-12-18T09:05:07;99607.66;;;22.80;31.03
67818;BME280;54614;47.576;7.524;2022-12-18T09:07:33;99599.44;;;22.81;30.70
67818;BME280;54614;47.576;7.524;2022-12-18T09:09:59;99608.66;;;22.79;31.03
67818;BME280;54614;47.576;7.524;2022-12-18T09:12:25;99607.31;;;22.83;30.94
67818;BME280;54614;47.576;7.524;2022-12-18T09:14:51;99608.50;;;22.80;31.29
67818;BME280;54614;47.576;7.524;2022-12-18T09:17:17;99602.44;;;22.78;31.13
67818;BME280;54614;47.576;7.524;2022-12-18T09:19:43;99600.59;;;22.79;31.28
67818;BME280;54614;47.576;7.524;2022-12-18T09:22:09;99601.28;;;22.81;31.39
67818;BME280;54614;47.576;7.524;2022-12-18T09:24:35;99599.75;;;22.78;31.12
67818;BME280;54614;47.576;7.524;2022-12-18T09:27:01;99591.41;;;22.73;31.56
67818;BME280;54614;47.576;7.524;2022-12-18T09:29:27;99593.25;;;22.73;31.18
67818;BME280;54614;47.576;7.524;2022-12-18T09:31:53;99593.25;;;22.73;31.53
67818;BME280;54614;47.576;7.524;2022-12-18T09:34:18;99607.50;;;22.73;31.42
67818;BME280;54614;47.576;7.524;2022-12-18T09:36:47;99610.84;;;22.75;31.23
67818;BME280;54614;47.576;7.524;2022-12-18T09:39:13;99604.28;;;22.78;31.36
67818;BME280;54614;47.576;7.524;2022-12-18T09:41:45;99609.00;;;22.76;31.45
67818;BME280;54614;47.576;7.524;2022-12-18T09:44:33;99610.66;;;22.77;31.68
67818;BME280;54614;47.576;7.524;2022-12-18T09:47:23;99615.03;;;22.78;31.52
67818;BME280;54614;47.576;7.524;2022-12-18T09:49:58;99623.25;;;22.76;31.69
67818;BME280;54614;47.576;7.524;2022-12-18T09:52:36;99618.22;;;22.81;31.24
67818;BME280;54614;47.576;7.524;2022-12-18T09:55:37;99624.06;;;22.77;31.32
67818;BME280;54614;47.576;7.524;2022-12-18T10:01:14;99615.53;;;22.81;31.28
67818;BME280;54614;47.576;7.524;2022-12-18T10:03:41;99603.97;;;22.81;31.36
67818;BME280;54614;47.576;7.524;2022-12-18T10:06:38;99596.41;;;22.76;31.30
67818;BME280;54614;47.576;7.524;2022-12-18T10:09:30;99599.44;;;22.73;30.91
67818;BME280;54614;47.576;7.524;2022-12-18T10:14:57;99602.97;;;22.74;30.72
67818;BME280;54614;47.576;7.524;2022-12-18T10:20:48;99594.59;;;22.69;30.18
67818;BME280;54614;47.576;7.524;2022-12-18T10:26:38;99581.56;;;22.66;30.19
67818;BME280;54614;47.576;7.524;2022-12-18T10:29:16;99580.38;;;22.68;30.03
67818;BME280;54614;47.576;7.524;2022-12-18T10:31:42;99578.53;;;22.69;29.82
67818;BME280;54614;47.576;7.524;2022-12-18T10:34:15;99583.41;;;22.65;30.14
67818;BME280;54614;47.576;7.524;2022-12-18T10:36:41;99585.56;;;22.70;30.02
67818;BME280;54614;47.576;7.524;2022-12-18T10:39:19;99584.91;;;22.68;29.96
67818;BME280;54614;47.576;7.524;2022-12-18T10:41:45;99584.59;;;22.63;30.17
67818;BME280;54614;47.576;7.524;2022-12-18T10:44:20;99576.50;;;22.71;29.97
67818;BME280;54614;47.576;7.524;2022-12-18T10:47:02;99567.97;;;22.67;29.91
67818;BME280;54614;47.576;7.524;2022-12-18T10:49:32;99564.59;;;22.73;29.93
67818;BME280;54614;47.576;7.524;2022-12-18T10:52:20;99567.25;;;22.73;30.01
67818;BME280;54614;47.576;7.524;2022-12-18T10:54:59;99566.13;;;22.68;29.95
67818;BME280;54614;47.576;7.524;2022-12-18T10:57:38;99569.78;;;22.75;29.63
67818;BME280;54614;47.576;7.524;2022-12-18T11:02:49;99552.72;;;22.68;29.80
67818;BME280;54614;47.576;7.524;2022-12-18T11:05:33;99561.47;;;22.62;30.10
67818;BME280;54614;47.576;7.524;2022-12-18T11:08:00;99561.94;;;22.65;29.87
67818;BME280;54614;47.576;7.524;2022-12-18T11:10:37;99559.63;;;22.62;29.84
67818;BME280;54614;47.576;7.524;2022-12-18T11:13:19;99564.81;;;22.64;29.86
67818;BME280;54614;47.576;7.524;2022-12-18T11:15:46;99558.06;;;22.68;29.96
67818;BME280;54614;47.576;7.524;2022-12-18T11:18:34;99543.00;;;22.67;30.05
67818;BME280;54614;47.576;7.524;2022-12-18T11:23:32;99546.88;;;22.64;30.12
67818;BME280;54614;47.576;7.524;2022-12-18T11:26:02;99546.56;;;22.59;30.37
67818;BME280;54614;47.576;7.524;2022-12-18T11:28:40;99540.00;;;22.62;30.45
67818;BME280;54614;47.576;7.524;2022-12-18T11:31:21;99534.28;;;22.65;30.49
67818;BME280;54614;47.576;7.524;2022-12-18T11:36:40;99529.91;;;22.72;30.60
67818;BME280;54614;47.576;7.524;2022-12-18T11:39:41;99533.41;;;22.72;31.02
67818;BME280;54614;47.576;7.524;2022-12-18T11:42:44;99533.94;;;22.68;30.84
67818;BME280;54614;47.576;7.524;2022-12-18T11:47:52;99529.34;;;22.76;30.77
67818;BME280;54614;47.576;7.524;2022-12-18T11:50:26;99531.72;;;22.79;31.26
67818;BME280;54614;47.576;7.524;2022-12-18T11:52:54;99524.50;;;22.80;30.92
67818;BME280;54614;47.576;7.524;2022-12-18T12:01:50;99518.06;;;22.89;30.96
67818;BME280;54614;47.576;7.524;2022-12-18T12:04:43;99518.44;;;22.86;31.19
67818;BME280;54614;47.576;7.524;2022-12-18T12:07:26;99505.69;;;22.88;31.07
67818;BME280;54614;47.576;7.524;2022-12-18T12:10:09;99496.25;;;22.92;31.17
67818;BME280;54614;47.576;7.524;2022-12-18T12:22:03;99486.25;;;22.86;31.21
67818;BME280;54614;47.576;7.524;2022-12-18T12:25:19;99479.56;;;22.82;31.39
67818;BME280;54614;47.576;7.524;2022-12-18T12:28:18;99479.75;;;22.80;31.24
67818;BME280;54614;47.576;7.524;2022-12-18T12:39:48;99471.38;;;22.75;31.53
67818;BME280;54614;47.576;7.524;2022-12-18T12:42:45;99470.19;;;22.78;31.59
67818;BME280;54614;47.576;7.524;2022-12-18T12:46:01;99466.97;;;22.82;31.38
67818;BME280;54614;47.576;7.524;2022-12-18T12:48:48;99475.53;;;22.78;31.52
67818;BME280;54614;47.576;7.524;2022-12-18T12:51:28;99479.88;;;22.79;31.74
67818;BME280;54614;47.576;7.524;2022-12-18T12:53:58;99486.78;;;22.81;31.44
67818;BME280;54614;47.576;7.524;2022-12-18T12:56:40;99485.25;;;22.79;31.54
67818;BME280;54614;47.576;7.524;2022-12-18T12:59:41;99479.88;;;22.79;31.50
67818;BME280;54614;47.576;7.524;2022-12-18T13:02:42;99478.94;;;22.72;31.58
67818;BME280;54614;47.576;7.524;2022-12-18T13:05:29;99494.19;;;22.71;31.85
67818;BME280;54614;47.576;7.524;2022-12-18T13:08:03;99495.50;;;22.75;31.81
67818;BME280;54614;47.576;7.524;2022-12-18T13:10:43;99489.47;;;22.73;31.93
67818;BME280;54614;47.576;7.524;2022-12-18T13:13:12;99482.28;;;22.74;31.76
67818;BME280;54614;47.576;7.524;2022-12-18T13:15:47;99485.63;;;22.76;31.41
67818;BME280;54614;47.576;7.524;2022-12-18T13:18:23;99493.34;;;22.71;31.58
67818;BME280;54614;47.576;7.524;2022-12-18T13:21:05;99496.50;;;22.74;31.89
67818;BME280;54614;47.576;7.524;2022-12-18T13:23:38;99495.31;;;22.77;31.82
67818;BME280;54614;47.576;7.524;2022-12-18T13:31:14;99487.47;;;22.75;31.75
67818;BME280;54614;47.576;7.524;2022-12-18T13:33:47;99480.06;;;22.77;31.79
67818;BME280;54614;47.576;7.524;2022-12-18T13:36:26;99486.16;;;22.71;31.68
67818;BME280;54614;47.576;7.524;2022-12-18T13:41:41;99478.94;;;22.72;32.08
67818;BME280;54614;47.576;7.524;2022-12-18T13:44:39;99476.72;;;22.75;31.84
67818;BME280;54614;47.576;7.524;2022-12-18T13:47:37;99467.53;;;22.70;31.78
67818;BME280;54614;47.576;7.524;2022-12-18T13:50:23;99474.94;;;22.68;31.90
67818;BME280;54614;47.576;7.524;2022-12-18T13:52:52;99484.66;;;22.69;32.10
67818;BME280;54614;47.576;7.524;2022-12-18T13:55:20;99481.13;;;22.68;31.77
67818;BME280;54614;47.576;7.524;2022-12-18T13:57:47;99469.22;;;22.71;31.86
67818;BME280;54614;47.576;7.524;2022-12-18T14:02:49;99469.28;;;22.63;31.85
67818;BME280;54614;47.576;7.524;2022-12-18T14:05:34;99461.69;;;22.66;31.99
67818;BME280;54614;47.576;7.524;2022-12-18T14:08:21;99468.09;;;22.65;32.12
67818;BME280;54614;47.576;7.524;2022-12-18T14:10:49;99468.63;;;22.61;31.92
67818;BME280;54614;47.576;7.524;2022-12-18T14:13:33;99459.38;;;22.63;31.89
67818;BME280;54614;47.576;7.524;2022-12-18T14:16:04;99456.34;;;22.66;31.90
67818;BME280;54614;47.576;7.524;2022-12-18T14:18:57;99450.97;;;22.66;31.84
67818;BME280;54614;47.576;7.524;2022-12-18T14:21:29;99452.00;;;22.65;31.86
67818;BME280;54614;47.576;7.524;2022-12-18T14:24:20;99448.47;;;22.65;31.98
67818;BME280;54614;47.576;7.524;2022-12-18T14:26:48;99447.16;;;22.61;31.80
67818;BME280;54614;47.576;7.524;2022-12-18T14:29:28;99452.53;;;22.61;32.03
67818;BME280;54614;47.576;7.524;2022-12-18T14:32:14;99450.50;;;22.63;31.90
67818;BME280;54614;47.576;7.524;2022-12-18T14:34:46;99451.22;;;22.57;32.06
67818;BME280;54614;47.576;7.524;2022-12-18T14:37:16;99457.06;;;22.60;32.00
67818;BME280;54614;47.576;7.524;2022-12-18T14:40:03;99453.72;;;22.58;32.37
67818;BME280;54614;47.576;7.524;2022-12-18T14:42:30;99461.44;;;22.53;32.16